West Alton, Missouri
Current Conditions -  °F | °C
As of 2:50 PM on Friday 28 Nov 2014 (Local Time) from KALN Reporting Station
Clear Clear  
Wind Chill: 31°   Ceiling: Unl
Heat Index: 46°   Visibility: 10mi
Dew Point: 32°   Wind: 160mph
Humidity: 57%   Direction: 160°SSE
Pressure: 29.97"   Gusts: NA
Location:  38.87°N, 90.22°W
Report Text: KALN 282050Z 160139KT 10SM SKC 08/00 A2997
Loading
Personal Weather Stations






























Interactive Weather Map New forecast layout! Learn more

10-Day Weather Forecast

Advertisements
Track Severe Weather on mobile